Time;durP1;ratioP1;P1;durP2;ratioP2;P2;SDS_P1;SDS_P2;PMS_P1;PMS_P2;Temp;Humidity;BMP_temperature;BMP_pressure;BME280_temperature;BME280_humidity;BME280_pressure;Samples;Min_cycle;Max_cycle;Signal;HPM_P1;HPM_P2
2023/08/22 00:00:45;;;;;;;0.45;0.00;;;17.60;99.90;;;;;;5035062;28;20116;-75
2023/08/22 00:03:11;;;;;;;0.60;0.13;;;17.60;99.90;;;;;;5035669;28;20095;-75
2023/08/22 00:05:37;;;;;;;3.53;0.22;;;17.50;99.90;;;;;;5034834;28;20032;-74
2023/08/22 00:08:06;;;;;;;0.70;0.20;;;17.50;99.90;;;;;;5034913;28;20029;-76
2023/08/22 00:10:35;;;;;;;3.65;0.10;;;17.40;99.90;;;;;;5034670;28;20021;-75
2023/08/22 00:13:02;;;;;;;1.95;0.08;;;17.40;99.90;;;;;;5034856;28;20025;-75
2023/08/22 00:15:28;;;;;;;1.38;0.17;;;17.40;99.90;;;;;;5034946;28;20028;-75
2023/08/22 00:17:54;;;;;;;1.73;0.05;;;17.30;99.90;;;;;;5034823;28;20025;-75
2023/08/22 00:20:20;;;;;;;1.67;0.60;;;17.30;99.90;;;;;;5033608;28;20476;-75
2023/08/22 00:22:45;;;;;;;2.60;0.55;;;17.30;99.90;;;;;;5033444;28;20036;-75
2023/08/22 00:25:11;;;;;;;0.95;0.10;;;17.30;99.90;;;;;;5034485;28;20108;-75
2023/08/22 00:27:38;;;;;;;0.30;0.10;;;17.30;99.90;;;;;;5035172;28;20091;-75
2023/08/22 00:30:04;;;;;;;0.25;0.00;;;17.30;99.90;;;;;;5034583;28;20026;-75
2023/08/22 00:32:30;;;;;;;1.90;0.10;;;17.20;99.90;;;;;;5034406;28;20048;-74
2023/08/22 00:34:56;;;;;;;1.58;0.15;;;17.20;99.90;;;;;;5034455;28;20018;-75
2023/08/22 00:37:22;;;;;;;1.75;0.20;;;17.20;99.90;;;;;;5034360;28;20071;-75
2023/08/22 00:39:47;;;;;;;0.40;0.10;;;17.20;99.90;;;;;;5034944;28;20049;-74
2023/08/22 00:42:13;;;;;;;4.35;0.15;;;17.20;99.90;;;;;;5034426;28;20104;-74
2023/08/22 00:44:38;;;;;;;1.05;0.20;;;17.20;99.90;;;;;;5034359;28;20041;-75
2023/08/22 00:47:05;;;;;;;1.88;0.10;;;17.20;99.90;;;;;;5032895;28;20068;-74
2023/08/22 00:49:31;;;;;;;2.40;0.05;;;17.20;99.90;;;;;;5034777;28;20025;-75
2023/08/22 00:51:59;;;;;;;0.65;0.10;;;17.10;99.90;;;;;;5032878;28;20427;-75
2023/08/22 00:54:26;;;;;;;1.13;0.10;;;17.10;99.90;;;;;;5033944;28;20025;-75
2023/08/22 00:56:53;;;;;;;1.15;0.10;;;17.10;99.90;;;;;;5032744;28;20021;-75
2023/08/22 00:59:19;;;;;;;1.23;0.10;;;17.10;99.90;;;;;;5032949;28;20056;-75
2023/08/22 01:01:45;;;;;;;1.05;0.10;;;17.10;99.90;;;;;;5034062;28;20048;-75
2023/08/22 01:04:11;;;;;;;3.55;0.40;;;17.00;99.90;;;;;;5033893;28;20033;-75
2023/08/22 01:06:53;;;;;;;1.27;0.20;;;17.00;99.90;;;;;;5034174;28;20171;-75
2023/08/22 01:09:21;;;;;;;2.17;0.43;;;17.00;99.90;;;;;;5034974;28;20057;-75
2023/08/22 01:11:49;;;;;;;4.95;0.40;;;17.00;99.90;;;;;;5033895;28;20026;-75
2023/08/22 01:14:20;;;;;;;2.40;0.10;;;17.00;99.90;;;;;;5032451;28;20103;-75
2023/08/22 01:16:47;;;;;;;4.13;0.10;;;17.00;99.90;;;;;;5033739;28;20504;-75
2023/08/22 01:19:16;;;;;;;1.38;0.20;;;17.00;99.90;;;;;;5033935;28;20018;-75
2023/08/22 01:21:45;;;;;;;;;;;16.90;99.90;;;;;;5033825;28;20075;-75
2023/08/22 01:24:11;;;;;;;0.98;0.00;;;16.90;99.90;;;;;;5032443;28;19909;-75
2023/08/22 01:26:37;;;;;;;3.60;0.47;;;16.90;99.90;;;;;;5033553;28;20032;-75
2023/08/22 01:29:09;;;;;;;2.22;0.32;;;16.90;99.90;;;;;;5033663;28;20096;-75
2023/08/22 01:32:06;;;;;;;1.30;0.10;;;16.80;99.90;;;;;;5032423;28;20017;-75
2023/08/22 01:34:36;;;;;;;1.50;0.10;;;16.80;99.90;;;;;;5033496;28;20032;-75
2023/08/22 01:37:03;;;;;;;1.58;0.13;;;16.80;99.90;;;;;;5033483;28;20049;-75
2023/08/22 01:39:30;;;;;;;1.13;0.10;;;16.70;99.90;;;;;;5032150;28;20025;-75
2023/08/22 01:41:57;;;;;;;0.68;0.45;;;16.70;99.90;;;;;;5033669;28;20404;-76
2023/08/22 01:44:24;;;;;;;4.07;0.40;;;16.70;99.90;;;;;;5033321;28;20025;-75
2023/08/22 01:46:49;;;;;;;0.98;0.22;;;16.60;99.90;;;;;;5033296;28;20026;-75
2023/08/22 01:49:15;;;;;;;3.60;0.40;;;16.60;99.90;;;;;;5033882;28;20109;-76
2023/08/22 01:51:41;;;;;;;3.53;0.50;;;16.60;99.90;;;;;;5033466;28;20435;-75
2023/08/22 01:54:06;;;;;;;3.20;0.32;;;16.50;99.90;;;;;;5033797;28;20479;-75
2023/08/22 01:56:32;;;;;;;2.83;0.15;;;16.50;99.90;;;;;;5033259;28;20127;-75
2023/08/22 01:58:58;;;;;;;2.95;0.20;;;16.50;99.90;;;;;;5031954;28;20018;-75
2023/08/22 02:01:24;;;;;;;0.50;0.00;;;16.50;99.90;;;;;;5031762;28;20107;-75
2023/08/22 02:03:50;;;;;;;1.13;0.20;;;16.50;99.90;;;;;;5033230;28;20028;-75
2023/08/22 02:06:15;;;;;;;2.55;0.20;;;16.40;99.90;;;;;;5031875;28;20026;-75
2023/08/22 02:08:41;;;;;;;3.47;0.35;;;16.40;99.90;;;;;;5033164;28;20493;-75
2023/08/22 02:11:07;;;;;;;2.67;0.30;;;16.30;99.90;;;;;;5033246;28;20086;-75
2023/08/22 02:13:33;;;;;;;1.80;0.20;;;16.40;99.90;;;;;;5031958;28;20018;-75
2023/08/22 02:15:59;;;;;;;2.90;0.10;;;16.30;99.90;;;;;;5033184;28;20022;-75
2023/08/22 02:18:24;;;;;;;1.05;0.32;;;16.20;99.90;;;;;;5033116;28;20057;-75
2023/08/22 02:20:55;;;;;;;2.30;0.30;;;16.20;99.90;;;;;;5033095;28;20024;-75
2023/08/22 02:23:20;;;;;;;0.50;0.08;;;16.20;99.90;;;;;;5033099;28;20025;-75
2023/08/22 02:25:46;;;;;;;1.05;0.10;;;16.20;99.90;;;;;;5032967;28;20037;-75
2023/08/22 02:28:12;;;;;;;5.70;0.75;;;16.20;99.90;;;;;;5033071;28;20087;-75
2023/08/22 02:30:38;;;;;;;1.58;0.13;;;16.20;99.90;;;;;;5032866;28;20049;-75
2023/08/22 02:33:04;;;;;;;0.77;0.20;;;16.10;99.90;;;;;;5033395;28;20029;-75
2023/08/22 02:35:30;;;;;;;1.10;0.10;;;;;;;;;;5035460;28;20082;-75
2023/08/22 02:37:55;;;;;;;1.60;0.40;;;16.10;99.90;;;;;;5036777;28;20025;-75
2023/08/22 02:40:21;;;;;;;1.05;0.25;;;16.00;99.90;;;;;;5036590;28;20017;-75
2023/08/22 02:42:47;;;;;;;4.50;0.55;;;15.80;99.90;;;;;;5037201;28;20029;-75
2023/08/22 02:45:12;;;;;;;0.73;0.10;;;15.90;99.90;;;;;;5036504;28;20028;-75
2023/08/22 02:47:38;;;;;;;1.38;0.10;;;15.90;99.90;;;;;;5036364;28;20025;-75
2023/08/22 02:50:04;;;;;;;0.75;0.20;;;15.90;99.90;;;;;;5037010;28;20457;-75
2023/08/22 02:52:31;;;;;;;2.53;0.10;;;15.90;99.90;;;;;;5036737;28;20034;-75
2023/08/22 02:54:57;;;;;;;2.35;0.00;;;;;;;;;;5036266;28;20385;-75
2023/08/22 02:57:23;;;;;;;1.17;0.50;;;15.80;99.90;;;;;;5036341;28;20493;-75
2023/08/22 02:59:48;;;;;;;2.70;0.22;;;15.70;99.90;;;;;;5036428;28;20068;-75
2023/08/22 03:02:14;;;;;;;3.67;0.20;;;15.80;99.90;;;;;;5036391;28;20041;-75
2023/08/22 03:04:39;;;;;;;4.25;0.20;;;15.70;99.90;;;;;;5036174;28;20028;-75
2023/08/22 03:07:05;;;;;;;1.00;0.10;;;15.70;99.90;;;;;;5036100;28;20034;-75
2023/08/22 03:09:32;;;;;;;0.63;0.17;;;15.70;99.90;;;;;;5036305;28;20385;-75
2023/08/22 03:11:57;;;;;;;1.48;0.32;;;15.70;99.90;;;;;;5036603;28;20021;-75
2023/08/22 03:14:24;;;;;;;1.27;0.32;;;15.70;99.90;;;;;;5035917;28;20492;-75
2023/08/22 03:16:50;;;;;;;0.40;0.10;;;15.60;99.90;;;;;;5034491;28;20041;-75
2023/08/22 03:19:15;;;;;;;2.25;0.30;;;15.60;99.90;;;;;;5036025;28;20022;-75
2023/08/22 03:21:41;;;;;;;2.55;0.10;;;15.60;99.90;;;;;;5036384;28;20025;-75
2023/08/22 03:24:06;;;;;;;2.30;0.75;;;15.60;99.90;;;;;;5036275;28;20052;-75
2023/08/22 03:26:32;;;;;;;0.40;0.13;;;15.60;99.90;;;;;;5035658;28;20039;-75
2023/08/22 03:28:58;;;;;;;1.05;0.20;;;15.50;99.90;;;;;;5035675;28;20087;-75
2023/08/22 03:31:25;;;;;;;2.40;0.28;;;15.50;99.90;;;;;;5034556;28;20018;-75
2023/08/22 03:33:51;;;;;;;1.60;0.17;;;15.50;99.90;;;;;;5035704;28;20377;-75
2023/08/22 03:36:17;;;;;;;0.65;0.25;;;15.50;99.90;;;;;;5035584;28;20025;-75
2023/08/22 03:38:48;;;;;;;3.60;0.35;;;15.50;99.90;;;;;;5035619;28;20033;-75
2023/08/22 03:41:13;;;;;;;1.13;0.38;;;15.50;99.90;;;;;;5035554;28;20485;-75
2023/08/22 03:43:39;;;;;;;0.63;0.17;;;15.40;99.90;;;;;;5035487;28;20036;-75
2023/08/22 03:46:04;;;;;;;0.70;0.20;;;15.40;99.90;;;;;;5034051;28;20029;-75
2023/08/22 03:48:30;;;;;;;6.10;0.52;;;15.40;99.90;;;;;;5034028;28;20033;-75
2023/08/22 03:50:56;;;;;;;1.75;0.20;;;15.40;99.90;;;;;;5034137;28;20018;-75
2023/08/22 03:53:22;;;;;;;6.38;0.50;;;15.30;99.90;;;;;;5035181;28;20027;-75
2023/08/22 03:55:47;;;;;;;1.20;0.10;;;15.30;99.90;;;;;;5034075;28;20029;-75
2023/08/22 03:58:13;;;;;;;1.98;0.13;;;15.30;99.90;;;;;;5035338;28;20038;-75
2023/08/22 04:00:39;;;;;;;2.05;0.50;;;15.30;99.90;;;;;;5035188;28;20046;-76
2023/08/22 04:03:04;;;;;;;2.08;0.43;;;15.20;99.90;;;;;;5035796;28;20030;-75
2023/08/22 04:05:33;;;;;;;2.70;0.73;;;15.20;99.90;;;;;;5033688;28;20030;-75
2023/08/22 04:07:58;;;;;;;1.90;0.60;;;15.20;99.90;;;;;;5035569;28;20477;-75
2023/08/22 04:10:24;;;;;;;3.10;0.65;;;15.20;99.90;;;;;;5035640;28;20097;-75
2023/08/22 04:12:50;;;;;;;1.38;0.73;;;15.20;99.90;;;;;;5034958;28;20432;-75
2023/08/22 04:15:16;;;;;;;3.78;0.30;;;15.20;99.90;;;;;;5035419;28;20473;-75
2023/08/22 04:17:41;;;;;;;2.85;0.22;;;15.20;99.90;;;;;;5034877;28;20433;-75
2023/08/22 04:20:11;;;;;;;2.95;0.50;;;15.20;99.90;;;;;;5034835;28;20034;-75
2023/08/22 04:22:39;;;;;;;3.92;0.50;;;15.20;99.90;;;;;;5035213;28;20045;-75
2023/08/22 04:25:06;;;;;;;0.60;0.20;;;15.20;99.90;;;;;;5034731;28;20022;-75
2023/08/22 04:27:31;;;;;;;1.92;0.32;;;15.20;99.90;;;;;;5034614;28;20028;-75
2023/08/22 04:29:57;;;;;;;2.58;0.63;;;15.10;99.90;;;;;;5035122;28;20368;-75
2023/08/22 04:32:23;;;;;;;2.78;0.82;;;15.10;99.90;;;;;;5033310;28;20075;-75
2023/08/22 04:34:48;;;;;;;3.75;0.45;;;15.10;99.90;;;;;;5033251;28;20018;-75
2023/08/22 04:37:14;;;;;;;0.90;0.30;;;15.10;99.90;;;;;;5034426;28;20029;-75
2023/08/22 04:39:39;;;;;;;2.15;0.32;;;15.10;99.90;;;;;;5034313;28;20026;-75
2023/08/22 04:42:05;;;;;;;2.13;0.55;;;15.00;99.90;;;;;;5034397;28;20033;-75
2023/08/22 04:44:30;;;;;;;2.60;0.50;;;15.00;99.90;;;;;;5034150;28;20387;-75
2023/08/22 04:46:56;;;;;;;2.60;0.57;;;15.00;99.90;;;;;;5033015;28;20079;-75
2023/08/22 04:49:23;;;;;;;2.55;0.85;;;15.00;99.90;;;;;;5034371;28;20479;-75
2023/08/22 04:51:49;;;;;;;1.52;0.43;;;15.00;99.90;;;;;;5032909;28;20517;-75
2023/08/22 04:54:15;;;;;;;4.93;1.20;;;15.00;99.90;;;;;;5034162;28;20024;-75
2023/08/22 04:56:40;;;;;;;1.50;0.45;;;15.00;99.90;;;;;;5032388;28;20021;-75
2023/08/22 04:59:06;;;;;;;2.80;0.85;;;15.00;99.90;;;;;;5033992;28;20026;-75
2023/08/22 05:01:34;;;;;;;2.90;0.90;;;15.00;99.90;;;;;;5032557;28;20032;-75
2023/08/22 05:04:00;;;;;;;1.30;0.40;;;15.10;99.90;;;;;;5034126;28;20424;-76
2023/08/22 05:06:26;;;;;;;1.85;0.82;;;15.10;99.90;;;;;;5033815;28;20075;-75
2023/08/22 05:08:51;;;;;;;1.40;0.28;;;15.10;99.90;;;;;;5034352;28;20084;-75
2023/08/22 05:11:17;;;;;;;2.17;0.77;;;15.10;99.90;;;;;;5034074;28;20500;-75
2023/08/22 05:13:42;;;;;;;1.35;0.50;;;15.20;99.90;;;;;;5033739;28;20072;-75
2023/08/22 05:16:08;;;;;;;1.48;0.43;;;15.20;99.90;;;;;;5033866;28;20028;-75
2023/08/22 05:18:33;;;;;;;4.03;1.02;;;15.20;99.90;;;;;;5032385;28;20021;-75
2023/08/22 05:20:59;;;;;;;3.50;0.90;;;15.20;99.90;;;;;;5032573;28;20025;-75
2023/08/22 05:23:24;;;;;;;2.63;0.88;;;15.20;99.90;;;;;;5032600;28;20025;-75
2023/08/22 05:25:50;;;;;;;3.83;1.00;;;15.30;99.90;;;;;;5033814;28;20493;-76
2023/08/22 05:28:16;;;;;;;1.55;0.50;;;15.40;99.90;;;;;;5032232;28;20056;-75
2023/08/22 05:30:41;;;;;;;1.55;0.50;;;15.50;99.90;;;;;;5033548;28;20420;-75
2023/08/22 05:33:07;;;;;;;2.40;0.98;;;15.50;99.90;;;;;;5033644;28;20029;-75
2023/08/22 05:35:32;;;;;;;6.38;0.75;;;15.60;99.90;;;;;;5033850;28;20030;-75
2023/08/22 05:37:59;;;;;;;2.97;0.98;;;15.60;99.90;;;;;;5032545;28;20527;-76
2023/08/22 05:40:25;;;;;;;3.38;2.08;;;15.70;99.90;;;;;;5034204;28;20064;-77
2023/08/22 05:42:52;;;;;;;2.72;1.48;;;15.90;99.90;;;;;;5033778;28;20392;-76
2023/08/22 05:45:17;;;;;;;7.13;2.15;;;16.00;99.90;;;;;;5033524;28;20459;-76
2023/08/22 05:47:43;;;;;;;5.13;2.10;;;16.10;99.90;;;;;;5033320;28;20022;-76
2023/08/22 05:50:09;;;;;;;3.40;1.52;;;16.40;99.90;;;;;;5033353;28;20079;-76
2023/08/22 05:52:35;;;;;;;4.43;1.95;;;16.30;99.90;;;;;;5032037;28;20026;-76
2023/08/22 05:55:02;;;;;;;5.75;1.40;;;16.40;99.90;;;;;;5033305;28;20025;-76
2023/08/22 05:57:29;;;;;;;5.40;1.60;;;16.50;99.90;;;;;;5032391;28;20032;-79
2023/08/22 05:59:54;;;;;;;6.90;2.25;;;16.70;99.90;;;;;;5033445;28;20520;-76
2023/08/22 06:02:20;;;;;;;6.15;1.80;;;17.40;99.90;;;;;;5033228;28;20152;-76
2023/08/22 06:04:46;;;;;;;3.00;1.35;;;16.90;99.90;;;;;;5031814;28;20484;-76
2023/08/22 06:07:11;;;;;;;4.75;2.15;;;17.00;99.90;;;;;;5033285;28;20029;-76
2023/08/22 06:09:37;;;;;;;3.92;1.38;;;17.10;99.90;;;;;;5036383;28;20473;-76
2023/08/22 06:12:03;;;;;;;6.03;1.67;;;17.20;99.90;;;;;;5037098;28;20100;-76
2023/08/22 06:14:29;;;;;;;6.35;1.55;;;17.30;99.90;;;;;;5037778;28;20191;-76
2023/08/22 06:16:54;;;;;;;6.70;1.65;;;17.40;99.90;;;;;;5035983;28;20309;-77
2023/08/22 06:19:20;;;;;;;3.78;1.85;;;17.50;99.90;;;;;;5035319;28;20025;-76
2023/08/22 06:21:46;;;;;;;5.85;1.48;;;17.60;99.90;;;;;;5035740;28;20029;-76
2023/08/22 06:24:11;;;;;;;6.43;1.70;;;17.80;99.90;;;;;;5035733;28;20034;-75
2023/08/22 06:26:37;;;;;;;4.32;1.50;;;18.10;99.90;;;;;;5035844;28;20021;-77
2023/08/22 06:29:03;;;;;;;8.90;1.92;;;18.40;99.90;;;;;;5036949;28;20021;-76
2023/08/22 06:31:29;;;;;;;7.70;1.98;;;19.00;99.90;;;;;;5036935;28;20022;-77
2023/08/22 06:33:55;;;;;;;8.23;2.13;;;19.50;99.90;;;;;;5036788;28;20551;-77
2023/08/22 06:36:20;;;;;;;6.28;1.73;;;19.20;99.90;;;;;;5036719;28;20025;-75
2023/08/22 06:38:46;;;;;;;4.60;1.10;;;19.80;99.90;;;;;;5036934;28;20026;-77
2023/08/22 06:41:11;;;;;;;7.18;1.50;;;19.40;99.90;;;;;;5035578;28;20034;-77
2023/08/22 06:43:37;;;;;;;3.72;1.20;;;19.50;99.90;;;;;;5036691;28;20437;-75
2023/08/22 06:46:02;;;;;;;5.35;1.10;;;19.60;99.90;;;;;;5035456;28;20030;-77
2023/08/22 06:48:28;;;;;;;10.73;2.05;;;19.70;99.90;;;;;;5037275;28;20511;-76
2023/08/22 06:50:54;;;;;;;3.38;1.08;;;19.80;99.90;;;;;;5036780;28;20048;-77
2023/08/22 06:53:19;;;;;;;4.13;0.47;;;19.80;99.90;;;;;;5036952;28;20025;-76
2023/08/22 06:55:46;;;;;;;7.68;1.35;;;20.00;99.90;;;;;;5036280;28;20108;-76
2023/08/22 06:58:12;;;;;;;2.85;0.60;;;20.20;99.90;;;;;;5036405;28;20083;-76
2023/08/22 07:00:37;;;;;;;6.18;0.77;;;20.20;99.90;;;;;;5036135;28;20037;-76
2023/08/22 07:03:03;;;;;;;4.28;0.47;;;20.40;99.90;;;;;;5036576;28;20032;-76
2023/08/22 07:05:29;;;;;;;2.65;0.55;;;20.50;99.90;;;;;;5036678;28;20471;-76
2023/08/22 07:07:54;;;;;;;4.00;0.50;;;20.50;99.90;;;;;;5036209;28;20104;-75
2023/08/22 07:10:20;;;;;;;5.85;0.30;;;20.60;99.90;;;;;;5034814;28;20030;-76
2023/08/22 07:12:46;;;;;;;2.25;0.30;;;20.60;99.90;;;;;;5036021;28;20029;-76
2023/08/22 07:15:12;;;;;;;4.40;0.47;;;20.70;99.90;;;;;;5034744;28;20022;-76
2023/08/22 07:17:37;;;;;;;2.55;0.30;;;20.80;99.90;;;;;;5036004;28;20025;-76
2023/08/22 07:20:03;;;;;;;4.10;0.43;;;20.70;99.90;;;;;;5035582;28;20025;-76
2023/08/22 07:22:29;;;;;;;4.30;0.45;;;20.80;99.90;;;;;;5036231;28;20543;-75
2023/08/22 07:24:55;;;;;;;3.92;0.30;;;20.70;99.90;;;;;;5036010;28;20440;-76
2023/08/22 07:27:22;;;;;;;5.68;0.45;;;20.80;99.90;;;;;;5036310;28;20018;-76
2023/08/22 07:29:47;;;;;;;4.65;0.60;;;20.90;99.90;;;;;;5035994;28;20524;-77
2023/08/22 07:32:13;;;;;;;2.67;0.52;;;20.90;99.90;;;;;;5034753;28;20017;-76
2023/08/22 07:34:39;;;;;;;3.00;0.50;;;20.80;99.90;;;;;;5036123;28;20057;-75
2023/08/22 07:37:04;;;;;;;2.30;0.90;;;21.00;99.90;;;;;;5035717;28;20025;-75
2023/08/22 07:39:30;;;;;;;3.40;1.17;;;21.00;99.90;;;;;;5035714;28;20512;-77
2023/08/22 07:41:55;;;;;;;5.00;1.45;;;21.00;99.90;;;;;;5035762;28;20025;-76
2023/08/22 07:44:23;;;;;;;6.15;0.80;;;21.00;99.90;;;;;;5035830;28;20112;-77
2023/08/22 07:46:50;;;;;;;4.72;1.25;;;21.00;99.90;;;;;;5034449;28;20083;-76
2023/08/22 07:49:15;;;;;;;4.13;0.93;;;21.00;99.90;;;;;;5034280;28;20029;-73
2023/08/22 07:51:41;;;;;;;5.47;1.33;;;21.00;99.90;;;;;;5037041;28;20028;-79
2023/08/22 07:54:06;;;;;;;5.28;1.20;;;21.00;99.90;;;;;;5037524;28;20075;-78
2023/08/22 07:56:34;;;;;;;2.78;0.80;;;21.20;99.90;;;;;;5036333;28;20098;-77
2023/08/22 07:59:00;;;;;;;5.00;1.15;;;21.10;99.90;;;;;;5036043;28;20040;-78
2023/08/22 08:01:25;;;;;;;6.00;1.45;;;21.10;99.90;;;;;;5035825;28;20037;-77
2023/08/22 08:03:51;;;;;;;4.13;0.60;;;21.20;99.90;;;;;;5034591;28;20505;-77
2023/08/22 08:06:16;;;;;;;2.22;0.60;;;21.20;99.90;;;;;;5034449;28;20116;-76
2023/08/22 08:08:42;;;;;;;5.10;1.20;;;21.20;99.90;;;;;;5035841;28;20501;-78
2023/08/22 08:11:07;;;;;;;2.22;0.40;;;21.00;99.90;;;;;;5036169;28;20057;-78
2023/08/22 08:13:33;;;;;;;2.65;0.57;;;21.10;99.90;;;;;;5037398;28;20022;-77
2023/08/22 08:15:59;;;;;;;1.80;0.57;;;21.20;99.90;;;;;;5035722;28;20093;-78
2023/08/22 08:18:24;;;;;;;3.53;0.57;;;21.20;99.90;;;;;;5036488;28;20036;-78
2023/08/22 08:20:51;;;;;;;5.88;0.68;;;21.40;99.90;;;;;;5036126;28;20026;-78
2023/08/22 08:23:16;;;;;;;3.72;0.75;;;21.90;99.90;;;;;;5034305;28;20025;-78
2023/08/22 08:25:42;;;;;;;2.13;0.45;;;21.50;99.90;;;;;;5035455;28;20159;-77
2023/08/22 08:28:07;;;;;;;5.13;1.08;;;21.70;99.90;;;;;;5034129;28;20091;-76
2023/08/22 08:30:36;;;;;;;5.00;1.30;;;21.80;99.90;;;;;;5036339;28;20036;-79
2023/08/22 08:33:06;;;;;;;2.45;0.77;;;21.90;99.90;;;;;;5036258;28;20459;-79
2023/08/22 08:35:32;;;;;;;2.30;0.32;;;22.10;99.90;;;;;;5035666;28;20096;-79
2023/08/22 08:37:59;;;;;;;5.40;0.90;;;22.20;99.90;;;;;;5036027;28;20060;-78
2023/08/22 08:40:35;;;;;;;2.80;0.70;;;22.10;99.90;;;;;;5035918;28;20031;-77
2023/08/22 08:43:01;;;;;;;3.28;0.20;;;22.30;99.90;;;;;;5035825;28;20033;-78
2023/08/22 08:45:28;;;;;;;3.22;0.82;;;22.30;99.90;;;;;;5035404;28;20026;-78
2023/08/22 08:47:54;;;;;;;6.88;0.65;;;22.20;99.90;;;;;;5036298;28;20033;-78
2023/08/22 08:50:20;;;;;;;3.78;0.52;;;22.20;99.90;;;;;;5036320;28;20076;-76
2023/08/22 08:52:47;;;;;;;3.53;0.73;;;22.20;99.90;;;;;;5035667;28;20389;-76
2023/08/22 08:55:13;;;;;;;5.90;1.15;;;22.30;99.90;;;;;;5036235;28;20013;-75
2023/08/22 08:57:38;;;;;;;4.25;0.98;;;22.40;99.90;;;;;;5035416;28;20029;-78
2023/08/22 09:00:06;;;;;;;3.05;0.52;;;22.60;99.90;;;;;;5034661;28;20022;-76
2023/08/22 09:02:32;;;;;;;4.13;0.77;;;22.70;99.90;;;;;;5034929;28;20025;-77
2023/08/22 09:04:57;;;;;;;3.20;0.77;;;22.70;99.90;;;;;;5034285;28;20104;-75
2023/08/22 09:07:23;;;;;;;6.72;1.52;;;22.90;99.90;;;;;;5035291;28;20501;-76
2023/08/22 09:09:52;;;;;;;3.85;1.10;;;22.90;99.90;;;;;;5034925;28;20055;-78
2023/08/22 09:12:17;;;;;;;7.35;0.52;;;23.00;99.90;;;;;;5034075;28;20029;-76
2023/08/22 09:14:47;;;;;;;8.27;1.58;;;23.00;99.90;;;;;;5036668;28;20063;-78
2023/08/22 09:17:15;;;;;;;2.55;0.70;;;23.10;99.90;;;;;;5036896;28;20030;-77
2023/08/22 09:19:41;;;;;;;2.42;0.52;;;23.00;99.90;;;;;;5035610;28;20144;-79
2023/08/22 09:22:06;;;;;;;2.83;0.82;;;23.10;99.90;;;;;;5035544;28;20544;-78
2023/08/22 09:24:34;;;;;;;3.55;0.50;;;23.30;99.90;;;;;;5035589;28;20038;-78
2023/08/22 09:27:03;;;;;;;3.65;1.33;;;23.30;99.90;;;;;;5035415;28;20029;-77
2023/08/22 09:29:30;;;;;;;3.38;0.68;;;23.60;99.90;;;;;;5035664;28;20468;-77
2023/08/22 09:32:06;;;;;;;2.00;0.30;;;23.40;99.90;;;;;;5035813;28;20028;-77
2023/08/22 09:34:33;;;;;;;5.57;0.63;;;23.70;99.90;;;;;;5035580;28;20029;-78
2023/08/22 09:36:59;;;;;;;5.18;0.75;;;23.70;99.90;;;;;;5035650;28;20091;-78
2023/08/22 09:39:25;;;;;;;2.22;0.77;;;23.70;99.90;;;;;;5035026;28;20480;-77
2023/08/22 09:41:54;;;;;;;3.80;0.80;;;23.70;99.90;;;;;;5035713;28;20026;-76
2023/08/22 09:44:24;;;;;;;;;;;23.90;99.90;;;;;;5033864;28;20056;-76
2023/08/22 09:46:51;;;;;;;3.13;0.85;;;23.80;99.90;;;;;;5033704;28;20368;-77
2023/08/22 09:49:18;;;;;;;4.78;0.93;;;23.90;99.90;;;;;;5034572;28;20022;-79
2023/08/22 09:51:45;;;;;;;4.25;0.20;;;23.90;99.90;;;;;;5035001;28;20036;-77
2023/08/22 09:54:13;;;;;;;3.78;0.40;;;23.80;99.90;;;;;;5034658;28;20029;-77
2023/08/22 09:56:39;;;;;;;3.13;0.60;;;23.80;99.90;;;;;;5035542;28;20032;-78
2023/08/22 09:59:04;;;;;;;4.35;0.80;;;23.70;99.90;;;;;;5035074;28;20279;-76
2023/08/22 10:01:33;;;;;;;4.13;0.88;;;23.70;99.90;;;;;;5034122;28;20040;-77
2023/08/22 10:04:04;;;;;;;3.75;1.00;;;23.80;99.90;;;;;;5035455;28;20022;-77
2023/08/22 10:06:32;;;;;;;3.92;1.10;;;23.70;99.90;;;;;;5033642;28;20402;-78
2023/08/22 10:08:59;;;;;;;;;;;23.80;99.90;;;;;;5035794;28;20017;-76
2023/08/22 10:11:28;;;;;;;4.20;1.20;;;23.80;99.90;;;;;;5034101;28;20010;-75
2023/08/22 10:13:53;;;;;;;2.95;1.00;;;23.80;99.90;;;;;;5031932;28;20085;-75
2023/08/22 10:16:20;;;;;;;6.00;1.00;;;23.90;99.90;;;;;;5032978;28;20065;-75
2023/08/22 10:18:46;;;;;;;2.60;0.93;;;23.90;99.90;;;;;;5032901;28;20026;-74
2023/08/22 10:21:12;;;;;;;4.20;1.48;;;24.00;99.90;;;;;;5031740;28;20108;-74
2023/08/22 10:23:53;;;;;;;6.20;1.17;;;23.90;99.90;;;;;;5033042;28;20061;-75
2023/08/22 10:26:25;;;;;;;3.85;1.20;;;23.90;99.90;;;;;;5032909;28;20032;-74
2023/08/22 10:29:16;;;;;;;5.68;1.45;;;24.00;99.90;;;;;;5032865;28;20025;-75
2023/08/22 10:32:00;;;;;;;7.20;1.65;;;23.90;99.90;;;;;;5032815;28;20048;-74
2023/08/22 10:34:45;;;;;;;6.07;1.33;;;23.90;99.90;;;;;;5032843;28;20017;-74
2023/08/22 10:37:22;;;;;;;3.88;1.80;;;23.90;99.90;;;;;;5031013;28;20026;-74
2023/08/22 10:39:49;;;;;;;3.22;1.15;;;23.90;99.90;;;;;;5033034;28;20029;-74
2023/08/22 10:42:22;;;;;;;5.90;1.55;;;24.20;99.90;;;;;;5031726;28;20018;-74
2023/08/22 10:44:49;;;;;;;10.15;2.25;;;24.50;99.90;;;;;;5032678;28;20083;-74
2023/08/22 10:47:18;;;;;;;3.55;1.38;;;24.50;99.90;;;;;;5032557;28;20060;-74
2023/08/22 10:49:48;;;;;;;6.47;2.00;;;24.90;99.90;;;;;;5031810;28;20049;-74
2023/08/22 10:52:15;;;;;;;4.70;0.90;;;25.20;99.90;;;;;;5033189;28;20028;-75
2023/08/22 10:55:05;;;;;;;3.55;1.10;;;25.40;99.90;;;;;;5034096;28;20021;-75
2023/08/22 10:57:33;;;;;;;2.90;1.20;;;25.50;99.90;;;;;;5036442;28;20477;-74
2023/08/22 10:59:58;;;;;;;1.17;0.40;;;25.30;99.90;;;;;;5036363;28;20036;-74
2023/08/22 11:02:28;;;;;;;3.90;0.70;;;25.30;99.90;;;;;;5034970;28;20116;-74
2023/08/22 11:05:00;;;;;;;5.82;0.90;;;25.30;99.90;;;;;;5036876;28;20033;-74
2023/08/22 11:07:26;;;;;;;4.97;1.48;;;25.50;99.90;;;;;;5036692;28;20052;-74
2023/08/22 11:09:53;;;;;;;3.97;1.20;;;25.40;99.90;;;;;;5036135;28;20473;-74
2023/08/22 11:12:22;;;;;;;5.53;1.80;;;25.30;99.90;;;;;;5036052;28;20101;-74
2023/08/22 11:14:50;;;;;;;4.00;0.90;;;25.00;99.90;;;;;;5036402;28;20067;-74
2023/08/22 11:17:21;;;;;;;3.05;0.45;;;24.70;99.90;;;;;;5034754;28;20056;-74
2023/08/22 11:19:48;;;;;;;5.07;1.45;;;24.70;99.90;;;;;;5036467;28;20021;-74
2023/08/22 11:22:15;;;;;;;3.45;1.00;;;24.70;99.90;;;;;;5035880;28;20031;-74
2023/08/22 11:24:45;;;;;;;5.30;1.02;;;24.90;99.90;;;;;;5035789;28;20037;-74
2023/08/22 11:27:13;;;;;;;4.28;0.63;;;25.00;99.90;;;;;;5034583;28;20025;-73
2023/08/22 11:29:49;;;;;;;2.78;0.50;;;25.00;99.90;;;;;;5035799;28;20025;-75
2023/08/22 11:32:29;;;;;;;1.27;0.63;;;25.20;99.90;;;;;;5036330;28;20028;-74
2023/08/22 11:35:06;;;;;;;8.02;1.27;;;25.40;99.90;;;;;;5035508;28;20032;-76
2023/08/22 11:37:33;;;;;;;6.18;1.45;;;25.20;99.90;;;;;;5034366;28;20412;-75
2023/08/22 11:39:59;;;;;;;2.85;0.80;;;25.20;99.90;;;;;;5034596;28;20077;-75
2023/08/22 11:42:29;;;;;;;10.43;0.93;;;25.00;99.90;;;;;;5035451;28;20026;-76
2023/08/22 11:45:04;;;;;;;4.80;0.82;;;25.00;99.90;;;;;;5035538;28;20025;-75
2023/08/22 11:47:41;;;;;;;3.33;0.65;;;25.10;99.90;;;;;;5035290;28;20034;-75
2023/08/22 11:50:28;;;;;;;4.78;0.70;;;25.20;99.90;;;;;;5035540;28;20104;-75
2023/08/22 11:53:07;;;;;;;1.95;0.20;;;25.30;99.90;;;;;;5035317;28;20026;-76
2023/08/22 11:55:33;;;;;;;3.40;0.45;;;25.30;99.90;;;;;;5034007;28;20018;-75
2023/08/22 11:58:00;;;;;;;1.10;0.10;;;25.50;99.90;;;;;;5035692;28;20040;-75
2023/08/22 12:00:28;;;;;;;3.35;0.55;;;25.70;99.90;;;;;;5035144;28;20032;-75
2023/08/22 12:02:56;;;;;;;5.88;0.45;;;25.80;99.90;;;;;;5035224;28;20113;-75
2023/08/22 12:05:50;;;;;;;2.10;0.65;;;25.60;99.90;;;;;;5034471;28;20022;-75
2023/08/22 12:08:17;;;;;;;2.28;0.10;;;25.70;99.90;;;;;;5034980;28;20029;-75
2023/08/22 12:10:53;;;;;;;0.73;0.57;;;25.70;99.90;;;;;;5035083;28;20021;-75
2023/08/22 12:13:23;;;;;;;2.90;0.57;;;25.70;99.90;;;;;;5033636;28;20117;-75
2023/08/22 12:15:49;;;;;;;3.25;0.50;;;25.60;99.90;;;;;;5034871;28;20022;-75
2023/08/22 12:18:16;;;;;;;1.70;0.08;;;25.40;99.90;;;;;;5035341;28;20030;-74
2023/08/22 12:20:43;;;;;;;4.50;0.93;;;25.20;99.90;;;;;;5034636;28;20052;-75
2023/08/22 12:23:10;;;;;;;0.95;0.00;;;25.20;99.90;;;;;;5033634;28;20057;-75
2023/08/22 12:25:41;;;;;;;3.17;0.28;;;25.20;99.90;;;;;;5034601;28;20030;-75
2023/08/22 12:28:08;;;;;;;4.53;0.05;;;24.80;99.90;;;;;;5034748;28;20029;-76
2023/08/22 12:30:35;;;;;;;3.83;0.00;;;24.90;99.90;;;;;;5033342;28;20029;-75
2023/08/22 12:33:03;;;;;;;3.38;0.40;;;25.00;99.90;;;;;;5033168;28;20401;-75
2023/08/22 12:35:31;;;;;;;3.00;0.10;;;25.00;99.90;;;;;;5034562;28;20021;-75
2023/08/22 12:37:56;;;;;;;1.95;0.00;;;24.90;99.90;;;;;;5033197;28;20033;-74
2023/08/22 12:40:22;;;;;;;4.50;0.10;;;24.70;99.90;;;;;;5033197;28;20029;-75
2023/08/22 12:42:48;;;;;;;3.25;0.20;;;25.40;99.90;;;;;;5034349;28;20061;-74
2023/08/22 12:45:13;;;;;;;1.25;0.00;;;25.90;99.90;;;;;;5034777;28;20468;-75
2023/08/22 12:47:40;;;;;;;5.88;0.10;;;26.30;99.90;;;;;;5034457;28;20563;-75